createdAt,value
2022-11-29T00:01:41.437Z,101615.00
2022-11-29T00:04:10.181Z,101620.80
2022-11-29T00:06:38.996Z,101615.00
2022-11-29T00:09:11.909Z,101616.40
2022-11-29T00:12:02.002Z,101616.20
2022-11-29T00:14:30.454Z,101613.20
2022-11-29T00:17:04.585Z,101613.00
2022-11-29T00:19:35.104Z,101607.80
2022-11-29T00:22:04.137Z,101606.00
2022-11-29T00:24:32.752Z,101616.20
2022-11-29T00:27:01.582Z,101614.60
2022-11-29T00:29:30.635Z,101614.40
2022-11-29T00:31:59.256Z,101617.20
2022-11-29T00:34:27.662Z,101619.20
2022-11-29T00:36:55.589Z,101618.60
2022-11-29T00:39:23.935Z,101618.00
2022-11-29T00:41:52.272Z,101617.00
2022-11-29T00:44:20.827Z,101621.00
2022-11-29T00:46:49.759Z,101627.80
2022-11-29T00:49:18.271Z,101623.60
2022-11-29T00:51:47.202Z,101626.20
2022-11-29T00:54:16.289Z,101621.20
2022-11-29T00:56:44.591Z,101617.80
2022-11-29T00:59:12.539Z,101617.60
2022-11-29T01:01:40.532Z,101613.00
2022-11-29T01:04:08.486Z,101606.20
2022-11-29T01:06:36.513Z,101603.40
2022-11-29T01:09:05.452Z,101607.40
2022-11-29T01:11:34.103Z,101607.60
2022-11-29T01:14:03.802Z,101599.20
2022-11-29T01:16:32.257Z,101596.60
2022-11-29T01:19:00.684Z,101601.00
2022-11-29T01:21:29.281Z,101602.00
2022-11-29T01:23:57.199Z,101599.60
2022-11-29T01:26:29.214Z,101602.40
2022-11-29T01:28:58.796Z,101595.80
2022-11-29T01:31:31.259Z,101603.60
2022-11-29T01:34:03.598Z,101599.80
2022-11-29T01:36:34.868Z,101605.60
2022-11-29T01:39:06.202Z,101601.60
2022-11-29T01:41:37.894Z,101603.20
2022-11-29T01:44:25.697Z,101607.00
2022-11-29T01:46:55.339Z,101608.20
2022-11-29T01:49:32.997Z,101610.00
2022-11-29T01:52:11.419Z,101612.00
2022-11-29T01:54:45.509Z,101609.80
2022-11-29T01:57:14.605Z,101603.20
2022-11-29T01:59:48.300Z,101600.80
2022-11-29T02:02:29.487Z,101604.60
2022-11-29T02:05:00.732Z,101604.60
2022-11-29T02:07:29.039Z,101601.60
2022-11-29T02:09:56.962Z,101611.60
2022-11-29T02:12:40.360Z,101606.00
2022-11-29T02:15:26.663Z,101607.00
2022-11-29T02:18:11.459Z,101604.80
2022-11-29T02:21:43.198Z,101607.40
2022-11-29T02:24:42.120Z,101603.40
2022-11-29T02:27:43.920Z,101604.40
2022-11-29T02:30:49.884Z,101612.20
2022-11-29T02:34:07.273Z,101616.60
2022-11-29T02:37:07.156Z,101619.20
2022-11-29T02:40:01.029Z,101618.20
2022-11-29T02:43:16.247Z,101618.80
2022-11-29T02:45:51.596Z,101623.80
2022-11-29T02:49:07.654Z,101623.40
2022-11-29T02:51:48.293Z,101625.00
2022-11-29T02:54:40.727Z,101627.60
2022-11-29T02:57:45.651Z,101628.40
2022-11-29T03:00:18.066Z,101628.60
2022-11-29T03:02:52.302Z,101630.00
2022-11-29T03:05:47.332Z,101631.80
2022-11-29T03:08:34.603Z,101625.40
2022-11-29T03:11:30.445Z,101632.40
2022-11-29T03:14:31.160Z,101624.00
2022-11-29T03:17:12.976Z,101627.20
2022-11-29T03:20:13.075Z,101627.20
2022-11-29T03:23:19.513Z,101627.00
2022-11-29T03:25:59.698Z,101632.20
2022-11-29T03:28:55.393Z,101633.40
2022-11-29T03:31:32.229Z,101625.40
2022-11-29T03:34:23.075Z,101626.80
2022-11-29T03:37:16.384Z,101630.60
2022-11-29T03:39:44.184Z,101637.60
2022-11-29T03:42:34.490Z,101641.20
2022-11-29T03:45:22.944Z,101651.40
2022-11-29T03:48:22.041Z,101643.00
2022-11-29T03:50:57.056Z,101636.00
2022-11-29T03:53:56.938Z,101645.20
2022-11-29T03:56:32.780Z,101647.20
2022-11-29T03:59:19.577Z,101651.00
2022-11-29T04:02:32.331Z,101652.40
2022-11-29T04:05:36.027Z,101651.20
2022-11-29T04:08:22.686Z,101656.60
2022-11-29T04:11:21.932Z,101655.40
2022-11-29T04:14:03.413Z,101658.80
2022-11-29T04:16:56.827Z,101661.80
2022-11-29T04:20:00.207Z,101666.80
2022-11-29T04:22:54.129Z,101661.40
2022-11-29T04:25:33.974Z,101666.60
2022-11-29T04:28:45.012Z,101665.40
2022-11-29T04:31:50.792Z,101670.20
2022-11-29T04:34:49.820Z,101675.00
2022-11-29T04:37:51.853Z,101678.80
2022-11-29T04:41:05.994Z,101676.00
2022-11-29T04:43:55.114Z,101678.60
2022-11-29T04:46:38.503Z,101678.00
2022-11-29T04:49:25.999Z,101683.40
2022-11-29T04:52:33.596Z,101690.40
2022-11-29T04:55:34.025Z,101695.20
2022-11-29T04:58:15.067Z,101691.80
2022-11-29T05:01:18.556Z,101688.60
2022-11-29T05:04:19.234Z,101695.60
2022-11-29T05:07:18.873Z,101696.80
2022-11-29T05:10:18.506Z,101698.60
2022-11-29T05:12:59.861Z,101702.40
2022-11-29T05:16:24.035Z,101698.00
2022-11-29T05:19:12.192Z,101698.20
2022-11-29T05:22:17.546Z,101703.60
2022-11-29T05:25:24.467Z,101706.00
2022-11-29T05:28:33.425Z,101710.60
2022-11-29T05:31:29.777Z,101710.80
2022-11-29T05:34:18.277Z,101716.40
2022-11-29T05:37:14.613Z,101717.60
2022-11-29T05:40:47.390Z,101723.00
2022-11-29T05:43:54.881Z,101720.40
2022-11-29T05:46:52.255Z,101719.40
2022-11-29T05:49:38.640Z,101728.20
2022-11-29T05:52:19.666Z,101728.80
2022-11-29T05:55:07.120Z,101727.20
2022-11-29T05:57:55.499Z,101734.20
2022-11-29T06:00:24.799Z,101733.40
2022-11-29T06:03:33.941Z,101737.80
2022-11-29T06:06:26.184Z,101732.20
2022-11-29T06:09:07.781Z,101740.60
2022-11-29T06:11:54.047Z,101742.00
2022-11-29T06:15:24.018Z,101734.40
2022-11-29T06:18:12.664Z,101741.60
2022-11-29T06:20:54.658Z,101743.60
2022-11-29T06:23:54.847Z,101745.60
2022-11-29T06:26:52.251Z,101750.60
2022-11-29T06:29:54.245Z,101745.80
2022-11-29T06:32:55.224Z,101753.20
2022-11-29T06:35:47.993Z,101761.60
2022-11-29T06:38:23.047Z,101758.40
2022-11-29T06:40:54.952Z,101760.20
2022-11-29T06:43:27.383Z,101759.40
2022-11-29T06:46:10.146Z,101762.00
2022-11-29T06:49:22.100Z,101764.20
2022-11-29T06:52:12.988Z,101764.20
2022-11-29T06:55:12.737Z,101768.00
2022-11-29T06:58:30.310Z,101775.00
2022-11-29T07:01:23.926Z,101768.40
2022-11-29T07:04:25.560Z,101769.40
2022-11-29T07:06:54.005Z,101777.40
2022-11-29T07:09:33.266Z,101777.80
2022-11-29T07:12:01.676Z,101778.20
2022-11-29T07:14:30.087Z,101781.60
2022-11-29T07:17:28.914Z,101788.00
2022-11-29T07:20:20.231Z,101786.80
2022-11-29T07:23:06.262Z,101790.40
2022-11-29T07:25:55.943Z,101794.60
2022-11-29T07:28:50.475Z,101791.20
2022-11-29T07:31:42.635Z,101793.00
2022-11-29T07:34:35.528Z,101791.00
2022-11-29T07:37:20.461Z,101789.00
2022-11-29T07:40:06.820Z,101788.20
2022-11-29T07:42:50.064Z,101789.00
2022-11-29T07:45:27.785Z,101793.00
2022-11-29T07:47:56.012Z,101787.80
2022-11-29T07:50:26.072Z,101798.60
2022-11-29T07:52:56.017Z,101794.40
2022-11-29T07:55:27.081Z,101793.20
2022-11-29T07:57:54.968Z,101799.20
2022-11-29T08:00:23.373Z,101792.60
2022-11-29T08:02:51.832Z,101788.80
2022-11-29T08:05:19.800Z,101793.80
2022-11-29T08:07:47.895Z,101788.80
2022-11-29T08:10:17.538Z,101789.20
2022-11-29T08:12:50.286Z,101790.60
2022-11-29T08:15:21.159Z,101789.20
2022-11-29T08:17:49.660Z,101788.60
2022-11-29T08:20:18.270Z,101793.00
2022-11-29T08:22:58.723Z,101795.80
2022-11-29T08:25:28.139Z,101795.80
2022-11-29T08:27:56.588Z,101792.60
2022-11-29T08:30:24.712Z,101791.80
2022-11-29T08:32:53.252Z,101792.60
2022-11-29T08:35:23.354Z,101791.00
2022-11-29T08:37:51.477Z,101787.60
2022-11-29T08:40:19.653Z,101788.60
2022-11-29T08:42:47.537Z,101787.00
2022-11-29T08:45:15.485Z,101789.60
2022-11-29T08:47:43.834Z,101784.40
2022-11-29T08:50:16.665Z,101787.80
2022-11-29T08:53:07.917Z,101785.00
2022-11-29T08:55:43.257Z,101789.60
2022-11-29T08:58:14.750Z,101785.80
2022-11-29T09:00:47.074Z,101784.60
2022-11-29T09:03:34.062Z,101784.80
2022-11-29T09:06:12.723Z,101783.00
2022-11-29T09:08:45.649Z,101781.40
2022-11-29T09:11:20.028Z,101780.00
2022-11-29T09:13:54.531Z,101783.60
2022-11-29T09:16:26.671Z,101784.20
2022-11-29T09:18:56.235Z,101789.60
2022-11-29T09:21:26.990Z,101788.00
2022-11-29T09:23:59.422Z,101785.20
2022-11-29T09:26:31.498Z,101787.20
2022-11-29T09:29:04.334Z,101782.20
2022-11-29T09:31:34.782Z,101788.80
2022-11-29T09:34:02.995Z,101787.20
2022-11-29T09:36:31.704Z,101788.40
2022-11-29T09:39:03.043Z,101781.20
2022-11-29T09:41:58.482Z,101774.40
2022-11-29T09:45:03.010Z,101782.00
2022-11-29T09:48:31.368Z,101779.80
2022-11-29T09:51:30.349Z,101781.60
2022-11-29T09:54:23.956Z,101777.00
2022-11-29T09:56:55.853Z,101782.60
2022-11-29T09:59:49.489Z,101780.00
2022-11-29T10:02:45.582Z,101784.40
2022-11-29T10:05:44.670Z,101778.40
2022-11-29T10:08:27.858Z,101785.20
2022-11-29T10:11:31.025Z,101781.00
2022-11-29T10:14:18.034Z,101782.60
2022-11-29T10:16:55.120Z,101780.00
2022-11-29T10:19:37.973Z,101785.20
2022-11-29T10:22:18.600Z,101785.40
2022-11-29T10:24:51.960Z,101786.40
2022-11-29T10:27:24.043Z,101782.00
2022-11-29T10:29:52.149Z,101781.80
2022-11-29T10:32:24.279Z,101787.00
2022-11-29T10:34:52.358Z,101788.20
2022-11-29T10:37:23.426Z,101786.00
2022-11-29T10:40:00.582Z,101788.00
2022-11-29T10:42:47.730Z,101783.20
2022-11-29T10:45:40.212Z,101786.60
2022-11-29T10:48:12.671Z,101786.00
2022-11-29T10:50:44.523Z,101791.60
2022-11-29T10:53:22.885Z,101792.00
2022-11-29T10:56:00.867Z,101788.40
2022-11-29T10:58:31.128Z,101792.20
2022-11-29T11:01:17.420Z,101792.40
2022-11-29T11:03:58.025Z,101790.20
2022-11-29T11:06:49.253Z,101786.80
2022-11-29T11:09:28.083Z,101790.80
2022-11-29T11:12:00.951Z,101795.80
2022-11-29T11:14:34.667Z,101792.60
2022-11-29T11:17:27.092Z,101793.00
2022-11-29T11:20:06.609Z,101793.80
2022-11-29T11:22:40.168Z,101792.00
2022-11-29T11:25:35.292Z,101795.00
2022-11-29T11:28:27.199Z,101793.20
2022-11-29T11:31:16.211Z,101795.60
2022-11-29T11:33:46.458Z,101793.40
2022-11-29T11:36:20.357Z,101793.80
2022-11-29T11:38:55.827Z,101793.20
2022-11-29T11:41:55.877Z,101796.20
2022-11-29T11:44:47.846Z,101797.80
2022-11-29T11:47:22.804Z,101797.20
2022-11-29T11:50:02.498Z,101798.60
2022-11-29T11:52:50.162Z,101796.40
2022-11-29T11:55:21.791Z,101795.40
2022-11-29T11:58:10.328Z,101798.20
2022-11-29T12:01:06.070Z,101797.80
2022-11-29T12:03:52.832Z,101796.80
2022-11-29T12:06:43.262Z,101800.60
2022-11-29T12:09:40.767Z,101805.60
2022-11-29T12:12:23.366Z,101801.80
2022-11-29T12:15:34.305Z,101805.20
2022-11-29T12:18:12.677Z,101804.80
2022-11-29T12:21:07.615Z,101806.80
2022-11-29T12:24:10.710Z,101806.20
2022-11-29T12:26:58.617Z,101807.00
2022-11-29T12:29:32.356Z,101804.00
2022-11-29T12:32:42.650Z,101809.00
2022-11-29T12:35:40.912Z,101806.80
2022-11-29T12:38:24.681Z,101798.60
2022-11-29T12:41:16.444Z,101815.40
2022-11-29T12:44:07.806Z,101811.00
2022-11-29T12:46:39.334Z,101812.40
2022-11-29T12:49:33.682Z,101816.40
2022-11-29T12:52:13.690Z,101818.80
2022-11-29T12:55:10.332Z,101821.60
2022-11-29T12:57:45.996Z,101823.00
2022-11-29T13:00:20.471Z,101821.20
2022-11-29T13:03:07.172Z,101824.60
2022-11-29T13:05:57.023Z,101823.80
2022-11-29T13:08:49.249Z,101830.80
2022-11-29T13:11:40.380Z,101828.00
2022-11-29T13:14:41.986Z,101835.60
2022-11-29T13:17:39.746Z,101837.80
2022-11-29T13:20:25.637Z,101839.80
2022-11-29T13:23:39.158Z,101832.00
2022-11-29T13:26:13.964Z,101840.00
2022-11-29T13:28:46.502Z,101838.40
2022-11-29T13:31:20.577Z,101842.60
2022-11-29T13:34:10.561Z,101841.20
2022-11-29T13:37:13.193Z,101844.60
2022-11-29T13:40:06.204Z,101845.00
2022-11-29T13:43:18.027Z,101846.60
2022-11-29T13:46:36.866Z,101844.80
2022-11-29T13:49:04.849Z,101840.40
2022-11-29T13:51:41.287Z,101838.00
2022-11-29T13:54:32.825Z,101844.60
2022-11-29T13:57:10.496Z,101845.20
2022-11-29T13:59:45.881Z,101844.60
2022-11-29T14:02:41.860Z,101851.40
2022-11-29T14:05:29.046Z,101850.20
2022-11-29T14:08:26.783Z,101855.00
2022-11-29T14:11:01.965Z,101854.00
2022-11-29T14:14:18.077Z,101856.20
2022-11-29T14:16:53.775Z,101850.40
2022-11-29T14:19:33.453Z,101853.80
2022-11-29T14:22:07.738Z,101856.80
2022-11-29T14:24:35.600Z,101861.00
2022-11-29T14:27:06.794Z,101863.60
2022-11-29T14:29:54.129Z,101865.80
2022-11-29T14:32:58.959Z,101865.80
2022-11-29T14:35:37.798Z,101859.20
2022-11-29T14:38:30.708Z,101866.20
2022-11-29T14:41:46.011Z,101865.60
2022-11-29T14:44:28.351Z,101865.40
2022-11-29T14:47:27.349Z,101862.40
2022-11-29T14:49:58.185Z,101871.40
2022-11-29T14:52:33.791Z,101873.40
2022-11-29T14:55:04.946Z,101871.20
2022-11-29T14:57:48.247Z,101871.00
2022-11-29T15:00:38.903Z,101874.20
2022-11-29T15:03:42.975Z,101876.20
2022-11-29T15:06:26.372Z,101877.40
2022-11-29T15:09:11.207Z,101872.40
2022-11-29T15:11:56.934Z,101877.60
2022-11-29T15:14:56.701Z,101878.60
2022-11-29T15:17:54.708Z,101879.20
2022-11-29T15:20:31.389Z,101878.80
2022-11-29T15:23:04.336Z,101880.40
2022-11-29T15:25:33.345Z,101884.20
2022-11-29T15:28:06.091Z,101883.60
2022-11-29T15:30:37.112Z,101887.00
2022-11-29T15:33:23.884Z,101883.40
2022-11-29T15:36:04.940Z,101882.60
2022-11-29T15:38:44.086Z,101883.60
2022-11-29T15:41:30.535Z,101883.80
2022-11-29T15:44:06.250Z,101879.20
2022-11-29T15:46:36.052Z,101889.60
2022-11-29T15:49:18.861Z,101889.40
2022-11-29T15:52:08.530Z,101892.80
2022-11-29T15:54:46.301Z,101895.20
2022-11-29T15:57:29.169Z,101895.20
2022-11-29T16:00:05.600Z,101901.00
2022-11-29T16:02:39.383Z,101899.40
2022-11-29T16:05:29.822Z,101900.00
2022-11-29T16:08:05.007Z,101901.00
2022-11-29T16:10:43.563Z,101901.80
2022-11-29T16:13:31.321Z,101902.80
2022-11-29T16:16:22.136Z,101906.60
2022-11-29T16:18:51.267Z,101899.00
2022-11-29T16:21:32.130Z,101891.80
2022-11-29T16:24:20.172Z,101891.20
2022-11-29T16:26:50.995Z,101898.00
2022-11-29T16:29:38.392Z,101900.80
2022-11-29T16:32:42.623Z,101904.20
2022-11-29T16:35:18.834Z,101900.00
2022-11-29T16:37:48.029Z,101905.40
2022-11-29T16:40:35.592Z,101911.00
2022-11-29T16:43:03.509Z,101911.40
2022-11-29T16:45:41.857Z,101915.60
2022-11-29T16:48:31.219Z,101915.80
2022-11-29T16:51:11.266Z,101914.20
2022-11-29T16:53:47.978Z,101919.80
2022-11-29T16:56:20.657Z,101921.20
2022-11-29T16:59:24.844Z,101921.60
2022-11-29T17:01:43.239Z,101927.00
2022-11-29T17:04:11.124Z,101922.60
2022-11-29T17:06:39.283Z,101925.80
2022-11-29T17:09:07.465Z,101926.20
2022-11-29T17:11:35.515Z,101929.60
2022-11-29T17:14:03.543Z,101932.60
2022-11-29T17:16:31.545Z,101938.60
2022-11-29T17:18:59.421Z,101940.40
2022-11-29T17:21:32.517Z,101944.20
2022-11-29T17:24:00.377Z,101946.40
2022-11-29T17:26:35.861Z,101945.80
2022-11-29T17:29:04.102Z,101950.60
2022-11-29T17:31:32.840Z,101952.40
2022-11-29T17:34:02.560Z,101959.40
2022-11-29T17:36:31.366Z,101961.60
2022-11-29T17:39:00.688Z,101966.20
2022-11-29T17:41:29.402Z,101965.00
2022-11-29T17:43:58.172Z,101962.20
2022-11-29T17:46:36.177Z,101963.20
2022-11-29T17:49:08.536Z,101958.20
2022-11-29T17:51:54.237Z,101966.60
2022-11-29T17:54:22.981Z,101966.60
2022-11-29T17:56:52.150Z,101971.80
2022-11-29T17:59:20.595Z,101967.80
2022-11-29T18:01:48.672Z,101968.80
2022-11-29T18:04:16.830Z,101969.60
2022-11-29T18:06:50.005Z,101971.60
2022-11-29T18:09:19.777Z,101973.60
2022-11-29T18:11:50.103Z,101972.80
2022-11-29T18:14:24.042Z,101971.20
2022-11-29T18:16:52.467Z,101973.40
2022-11-29T18:19:23.058Z,101971.60
2022-11-29T18:21:58.149Z,101972.80
2022-11-29T18:24:27.385Z,101973.40
2022-11-29T18:27:00.319Z,101969.40
2022-11-29T18:29:38.283Z,101968.60
2022-11-29T18:32:07.549Z,101969.80
2022-11-29T18:34:38.839Z,101971.20
2022-11-29T18:37:16.014Z,101972.80
2022-11-29T18:39:51.706Z,101974.20
2022-11-29T18:42:21.708Z,101975.00
2022-11-29T18:44:51.725Z,101976.60
2022-11-29T18:47:24.566Z,101977.80
2022-11-29T18:53:04.537Z,101980.00
2022-11-29T18:55:37.258Z,101982.60
2022-11-29T18:58:09.475Z,101979.60
2022-11-29T19:00:37.780Z,101983.20
2022-11-29T19:03:07.200Z,101985.00
2022-11-29T19:05:41.043Z,101989.40
2022-11-29T19:08:12.288Z,101989.20
2022-11-29T19:10:42.184Z,101990.40
2022-11-29T19:13:18.672Z,101992.20
2022-11-29T19:15:55.932Z,101995.80
2022-11-29T19:18:37.041Z,101995.00
2022-11-29T19:21:12.697Z,101994.20
2022-11-29T19:23:56.188Z,101994.40
2022-11-29T19:26:28.130Z,101997.40
2022-11-29T19:29:04.141Z,101999.60
2022-11-29T19:31:36.343Z,101996.80
2022-11-29T19:34:11.478Z,101999.80
2022-11-29T19:36:46.363Z,102004.00
2022-11-29T19:39:18.129Z,102003.80
2022-11-29T19:41:50.254Z,101999.60
2022-11-29T19:44:18.528Z,102002.60
2022-11-29T19:46:49.563Z,101999.40
2022-11-29T19:49:17.756Z,102000.20
2022-11-29T19:51:45.831Z,102003.60
2022-11-29T19:54:14.260Z,102005.60
2022-11-29T19:56:55.775Z,102006.20
2022-11-29T19:59:27.251Z,102006.40
2022-11-29T20:01:57.487Z,102005.00
2022-11-29T20:04:27.620Z,102000.20
2022-11-29T20:06:58.145Z,102001.20
2022-11-29T20:09:31.645Z,102000.80
2022-11-29T20:12:02.011Z,102004.00
2022-11-29T20:14:33.557Z,102005.60
2022-11-29T20:17:07.842Z,102004.00
2022-11-29T20:19:41.622Z,102005.80
2022-11-29T20:22:09.822Z,102004.20
2022-11-29T20:24:45.351Z,102009.80
2022-11-29T20:27:19.496Z,101998.60
2022-11-29T20:29:47.796Z,102001.60
2022-11-29T20:32:23.701Z,102004.20
2022-11-29T20:34:57.478Z,102005.00
2022-11-29T20:38:17.259Z,101997.40
2022-11-29T20:41:07.820Z,102001.60
2022-11-29T20:43:49.709Z,102002.60
2022-11-29T20:46:20.094Z,102004.60
2022-11-29T20:48:48.695Z,102009.80
2022-11-29T20:51:28.609Z,102007.60
2022-11-29T20:53:58.992Z,102009.00
2022-11-29T20:56:36.846Z,102011.60
2022-11-29T20:59:04.794Z,102014.00
2022-11-29T21:01:35.642Z,102011.40
2022-11-29T21:04:18.849Z,102013.80
2022-11-29T21:06:58.797Z,102010.80
2022-11-29T21:09:28.633Z,102011.20
2022-11-29T21:12:02.817Z,102010.60
2022-11-29T21:14:35.729Z,102012.60
2022-11-29T21:17:04.596Z,102020.60
2022-11-29T21:19:49.755Z,102022.80
2022-11-29T21:22:32.491Z,102019.20
2022-11-29T21:25:21.476Z,102026.00
2022-11-29T21:27:52.705Z,102033.60
2022-11-29T21:30:28.251Z,102028.20
2022-11-29T21:32:58.611Z,102021.40
2022-11-29T21:35:30.148Z,102022.20
2022-11-29T21:38:14.770Z,102024.60
2022-11-29T21:40:45.086Z,102024.40
2022-11-29T21:43:16.074Z,102026.00
2022-11-29T21:45:52.519Z,102026.00
2022-11-29T21:48:38.241Z,102032.00
2022-11-29T21:51:22.437Z,102025.20
2022-11-29T21:53:50.947Z,102030.60
2022-11-29T21:56:24.401Z,102033.60
2022-11-29T21:59:02.819Z,102033.80
2022-11-29T22:01:32.382Z,102039.00
2022-11-29T22:04:00.714Z,102044.20
2022-11-29T22:06:29.559Z,102042.00
2022-11-29T22:08:59.864Z,102045.00
2022-11-29T22:11:35.531Z,102048.00
2022-11-29T22:14:15.803Z,102044.20
2022-11-29T22:17:17.705Z,102048.60
2022-11-29T22:19:45.666Z,102048.40
2022-11-29T22:22:13.991Z,102048.00
2022-11-29T22:24:43.306Z,102044.60
2022-11-29T22:27:11.329Z,102041.40
2022-11-29T22:29:39.178Z,102046.60
2022-11-29T22:32:07.174Z,102048.40
2022-11-29T22:34:36.671Z,102052.20
2022-11-29T22:37:04.772Z,102046.80
2022-11-29T22:39:32.709Z,102053.20
2022-11-29T22:42:06.239Z,102051.80
2022-11-29T22:44:35.190Z,102047.40
2022-11-29T22:47:04.139Z,102048.20
2022-11-29T22:49:33.733Z,102053.20
2022-11-29T22:52:02.309Z,102058.60
2022-11-29T22:54:34.088Z,102059.40
2022-11-29T22:57:03.098Z,102062.40
2022-11-29T22:59:33.808Z,102063.60
2022-11-29T23:02:02.470Z,102064.40
2022-11-29T23:04:30.479Z,102060.00
2022-11-29T23:07:05.635Z,102064.80
2022-11-29T23:09:35.347Z,102061.60
2022-11-29T23:12:11.124Z,102067.20
2022-11-29T23:14:40.744Z,102062.40
2022-11-29T23:17:08.765Z,102067.60
2022-11-29T23:19:39.394Z,102069.20
2022-11-29T23:22:07.723Z,102069.60
2022-11-29T23:24:35.659Z,102067.00
2022-11-29T23:27:04.597Z,102062.60
2022-11-29T23:29:32.539Z,102061.80
2022-11-29T23:32:00.481Z,102061.80
2022-11-29T23:34:28.424Z,102054.80
2022-11-29T23:36:56.319Z,102057.20
2022-11-29T23:39:24.190Z,102052.60
2022-11-29T23:41:52.113Z,102056.40
2022-11-29T23:44:20.026Z,102055.60
2022-11-29T23:46:47.915Z,102054.00
2022-11-29T23:49:15.862Z,102054.40
2022-11-29T23:51:43.664Z,102052.80
2022-11-29T23:54:11.641Z,102050.80
2022-11-29T23:56:39.603Z,102054.80
2022-11-29T23:59:07.653Z,102054.40
